Time;durP1;ratioP1;P1;durP2;ratioP2;P2;SDS_P1;SDS_P2;PMS_P1;PMS_P2;Temp;Humidity;BMP_temperature;BMP_pressure;BME280_temperature;BME280_humidity;BME280_pressure;Samples;Min_cycle;Max_cycle;Signal;HPM_P1;HPM_P2
2022/03/28 00:00:42;;;;;;;91.25;19.90;;;;;;;;;;4993635;28;20421;-67
2022/03/28 00:03:10;;;;;;;99.60;18.85;;;;;;;;;;5005653;28;20428;-68
2022/03/28 00:05:36;;;;;;;32.33;16.70;;;;;;;;;;5027369;28;20438;-68
2022/03/28 00:08:04;;;;;;;30.02;15.90;;;;;;;;;;4981522;28;20438;-68
2022/03/28 00:10:33;;;;;;;39.47;15.82;;;;;;;;;;5005786;28;20429;-68
2022/03/28 00:13:00;;;;;;;106.10;17.90;;;;;;;;;;4979468;28;20420;-68
2022/03/28 00:15:26;;;;;;;96.35;19.52;;;;;;;;;;4991266;28;20437;-68
2022/03/28 00:17:52;;;;;;;75.25;17.73;;;;;;;;;;5004758;28;20440;-68
2022/03/28 00:20:18;;;;;;;66.03;17.80;;;;;;;;;;4982991;28;20516;-68
2022/03/28 00:22:44;;;;;;;75.63;18.92;;;;;;;;;;4992581;28;20447;-68
2022/03/28 00:25:11;;;;;;;64.80;19.17;;;;;;;;;;4983998;28;20447;-69
2022/03/28 00:27:38;;;;;;;96.25;20.55;;;;;;;;;;4997109;28;20427;-69
2022/03/28 00:30:05;;;;;;;62.60;18.63;;;;;;;;;;5007949;28;20474;-69
2022/03/28 00:32:32;;;;;;;41.70;18.00;;;;;;;;;;5005486;28;20417;-69
2022/03/28 00:34:58;;;;;;;36.13;15.75;;;;;;;;;;4995022;28;20498;-69
2022/03/28 00:37:24;;;;;;;46.30;15.45;;;;;;;;;;4993151;28;20467;-68
2022/03/28 00:39:50;;;;;;;49.65;16.30;;;;;;;;;;5039390;28;20439;-68
2022/03/28 00:42:16;;;;;;;52.25;17.05;;;;;;;;;;4991697;28;20437;-69
2022/03/28 00:44:42;;;;;;;42.40;16.00;;;;;;;;;;4996331;28;20525;-69
2022/03/28 00:47:08;;;;;;;44.00;16.33;;;;;;;;;;5006747;28;20441;-68
2022/03/28 00:49:34;;;;;;;51.67;16.05;;;;;;;;;;4982236;28;20444;-68
2022/03/28 00:52:01;;;;;;;29.25;16.13;;;;;;;;;;5000126;28;20489;-67
2022/03/28 00:54:27;;;;;;;50.67;16.20;;;;;;;;;;4980802;28;20500;-68
2022/03/28 00:56:53;;;;;;;80.88;17.88;;;;;;;;;;5005799;28;20433;-68
2022/03/28 00:59:19;;;;;;;108.45;18.83;;;;;;;;;;4998078;28;20434;-68
2022/03/28 01:01:46;;;;;;;90.85;18.02;;;;;;;;;;4995358;28;20455;-68
2022/03/28 01:04:12;;;;;;;64.53;17.07;;;6.40;99.90;;;;;;4982624;28;20424;-68
2022/03/28 01:06:39;;;;;;;36.47;14.13;;;;;;;;;;4983792;28;20445;-68
2022/03/28 01:09:05;;;;;;;45.22;13.93;;;;;;;;;;4991619;28;20440;-69
2022/03/28 01:11:33;;;;;;;20.88;11.77;;;;;;;;;;4989302;28;20445;-67
2022/03/28 01:13:59;;;;;;;40.63;12.30;;;;;;;;;;4989920;28;20518;-68
2022/03/28 01:18:05;;;;;;;28.77;12.05;;;;;;;;;;4987726;28;20528;-68
2022/03/28 01:19:23;;;;;;;41.80;12.95;;;;;;;;;;4993917;28;20464;-68
2022/03/28 01:21:50;;;;;;;18.90;11.65;;;;;;;;;;4997958;28;20517;-68
2022/03/28 01:24:16;;;;;;;18.45;11.48;;;;;;;;;;4998757;28;20433;-68
2022/03/28 01:26:43;;;;;;;21.58;12.05;;;;;;;;;;5000228;28;20429;-67
2022/03/28 01:29:09;;;;;;;25.05;12.00;;;;;;;;;;5022565;28;20432;-67
2022/03/28 01:31:39;;;;;;;22.88;11.30;;;;;;;;;;5009692;28;20460;-67
2022/03/28 01:34:05;;;;;;;19.95;11.93;;;;;;;;;;4981263;28;20468;-68
2022/03/28 01:36:32;;;;;;;33.42;12.02;;;;;;;;;;5002653;28;20438;-68
2022/03/28 01:38:58;;;;;;;21.77;12.55;;;;;;;;;;5004446;28;20455;-68
2022/03/28 01:41:24;;;;;;;21.92;12.27;;;;;;;;;;4994535;28;20693;-68
2022/03/28 01:43:50;;;;;;;21.85;13.20;;;;;;;;;;4992840;28;21032;-68
2022/03/28 01:46:16;;;;;;;27.33;13.13;;;;;;;;;;4999522;28;20433;-68
2022/03/28 01:48:42;;;;;;;29.98;12.57;;;6.80;99.90;;;;;;5002242;28;20435;-68
2022/03/28 01:51:07;;;;;;;21.48;12.40;;;6.80;99.90;;;;;;4987778;28;20699;-68
2022/03/28 01:53:34;;;;;;;24.52;12.60;;;;;;;;;;5000413;28;20426;-68
2022/03/28 01:56:00;;;;;;;25.60;11.85;;;;;;;;;;4987405;28;20429;-68
2022/03/28 01:58:26;;;;;;;16.63;11.27;;;;;;;;;;4990646;28;20485;-69
2022/03/28 02:00:52;;;;;;;26.33;12.35;;;;;;;;;;5042953;28;20445;-68
2022/03/28 02:03:18;;;;;;;20.25;11.80;;;;;;;;;;4998111;28;20928;-68
2022/03/28 02:05:44;;;;;;;19.88;12.15;;;;;;;;;;5018739;28;20435;-68
2022/03/28 02:08:10;;;;;;;22.33;12.32;;;;;;;;;;4986571;28;20459;-68
2022/03/28 02:10:36;;;;;;;18.63;11.37;;;;;;;;;;5008885;28;20504;-69
2022/03/28 02:13:02;;;;;;;21.42;10.50;;;;;;;;;;4993508;28;20474;-68
2022/03/28 02:15:28;;;;;;;18.38;10.18;;;6.40;99.90;;;;;;5002914;28;20436;-68
2022/03/28 02:17:54;;;;;;;18.03;10.40;;;;;;;;;;4969288;28;20431;-69
2022/03/28 02:20:20;;;;;;;17.90;10.82;;;;;;;;;;4986885;28;20429;-68
2022/03/28 02:22:46;;;;;;;20.80;11.88;;;;;;;;;;4994613;28;20428;-68
2022/03/28 02:25:15;;;;;;;16.63;10.60;;;;;;;;;;5030118;28;20433;-70
2022/03/28 02:27:41;;;;;;;20.00;11.27;;;;;;;;;;5002257;28;20478;-68
2022/03/28 02:30:09;;;;;;;17.43;10.83;;;;;;;;;;5003563;28;20448;-69
2022/03/28 02:32:35;;;;;;;16.40;10.75;;;;;;;;;;4997866;28;20446;-68
2022/03/28 02:35:01;;;;;;;17.90;11.52;;;;;;;;;;5006342;28;20460;-68
2022/03/28 02:37:28;;;;;;;14.07;10.07;;;;;;;;;;5007739;28;20521;-68
2022/03/28 02:39:54;;;;;;;13.93;9.32;;;;;;;;;;5003832;28;20487;-68
2022/03/28 02:42:24;;;;;;;13.27;9.57;;;;;;;;;;4967860;28;20476;-68
2022/03/28 02:44:53;;;;;;;14.65;9.60;;;;;;;;;;4999653;28;20425;-67
2022/03/28 02:47:19;;;;;;;18.13;9.90;;;;;;;;;;4996268;28;20432;-68
2022/03/28 02:49:45;;;;;;;13.35;9.50;;;;;;;;;;5008911;28;20435;-68
2022/03/28 02:52:11;;;;;;;16.00;10.37;;;;;;;;;;4996182;28;20896;-68
2022/03/28 02:54:38;;;;;;;12.13;9.30;;;;;;;;;;5003843;28;20455;-68
2022/03/28 02:57:04;;;;;;;18.67;9.90;;;;;;;;;;5009099;28;20494;-68
2022/03/28 02:59:30;;;;;;;22.50;10.70;;;;;;;;;;4978342;28;20409;-68
2022/03/28 03:01:56;;;;;;;20.58;11.15;;;;;;;;;;5002637;28;20435;-69
2022/03/28 03:04:22;;;;;;;19.10;11.57;;;;;;;;;;4979854;28;20448;-68
2022/03/28 03:06:48;;;;;;;19.95;11.68;;;;;;;;;;5010996;28;20443;-68
2022/03/28 03:09:14;;;;;;;24.27;11.75;;;;;;;;;;4987952;28;20436;-68
2022/03/28 03:11:40;;;;;;;18.85;11.23;;;;;;;;;;4984130;28;20433;-68
2022/03/28 03:14:06;;;;;;;18.35;10.98;;;;;;;;;;5003395;28;20458;-68
2022/03/28 03:16:33;;;;;;;15.50;10.35;;;;;;;;;;5021662;28;20433;-69
2022/03/28 03:18:59;;;;;;;16.27;11.23;;;;;;;;;;4990314;28;20424;-68
2022/03/28 03:21:25;;;;;;;15.00;10.27;;;;;;;;;;4991498;28;20428;-68
2022/03/28 03:23:51;;;;;;;16.88;10.43;;;;;;;;;;4982297;28;20423;-69
2022/03/28 03:26:17;;;;;;;15.60;10.18;;;;;;;;;;5024410;28;20476;-68
2022/03/28 03:28:43;;;;;;;14.10;9.82;;;;;;;;;;4980042;28;21003;-68
2022/03/28 03:31:10;;;;;;;16.27;10.30;;;;;;;;;;5000836;28;20524;-68
2022/03/28 03:33:36;;;;;;;12.45;9.27;;;;;;;;;;4980275;28;20425;-68
2022/03/28 03:36:02;;;;;;;13.73;9.73;;;;;;;;;;4979722;28;20480;-68
2022/03/28 03:38:28;;;;;;;14.68;10.07;;;;;;;;;;4994441;28;20421;-69
2022/03/28 03:40:54;;;;;;;16.45;10.38;;;;;;;;;;5004685;28;20968;-67
2022/03/28 03:43:21;;;;;;;20.27;10.67;;;;;;;;;;4990607;28;20823;-68
2022/03/28 03:45:48;;;;;;;17.58;11.00;;;;;;;;;;4998273;28;20504;-67
2022/03/28 03:48:14;;;;;;;18.60;11.60;;;;;;;;;;4992463;28;20598;-68
2022/03/28 03:50:41;;;;;;;17.53;11.57;;;;;;;;;;4986747;28;20460;-68
2022/03/28 03:53:07;;;;;;;17.42;11.52;;;;;;;;;;5002519;28;20440;-68
2022/03/28 03:55:34;;;;;;;18.95;11.50;;;;;;;;;;4999893;28;20437;-68
2022/03/28 03:58:00;;;;;;;20.67;12.00;;;;;;;;;;4981933;28;20437;-68
2022/03/28 04:00:26;;;;;;;19.90;12.20;;;;;;;;;;4983957;28;20425;-68
2022/03/28 04:02:52;;;;;;;18.73;11.75;;;;;;;;;;5009123;28;20432;-68
2022/03/28 04:05:18;;;;;;;18.58;11.93;;;;;;;;;;5006849;28;20441;-68
2022/03/28 04:07:44;;;;;;;19.40;12.10;;;;;;;;;;4997180;28;20433;-68
2022/03/28 04:10:10;;;;;;;18.92;11.05;;;;;;;;;;4981002;28;20441;-68
2022/03/28 04:12:37;;;;;;;22.65;11.98;;;;;;;;;;5031419;28;20782;-68
2022/03/28 04:15:03;;;;;;;19.73;12.27;;;;;;;;;;4993965;28;20472;-67
2022/03/28 04:17:30;;;;;;;17.63;11.55;;;;;;;;;;4990134;28;20433;-67
2022/03/28 04:19:57;;;;;;;17.50;11.63;;;;;;;;;;5001645;28;20421;-68
2022/03/28 04:22:23;;;;;;;16.52;11.18;;;;;;;;;;4998509;28;20433;-68
2022/03/28 04:24:49;;;;;;;19.40;11.20;;;;;;;;;;4990236;28;20446;-67
2022/03/28 04:27:15;;;;;;;18.43;11.37;;;;;;;;;;5004977;28;20437;-68
2022/03/28 04:29:42;;;;;;;18.17;11.27;;;;;;;;;;5004835;28;20463;-67
2022/03/28 04:32:08;;;;;;;18.88;11.73;;;;;;;;;;4982894;28;20486;-67
2022/03/28 04:34:34;;;;;;;24.13;11.93;;;;;;;;;;4994056;28;20434;-68
2022/03/28 04:37:00;;;;;;;19.10;11.90;;;;;;;;;;4989166;28;20436;-67
2022/03/28 04:39:26;;;;;;;20.13;11.43;;;;;;;;;;5004220;28;20498;-68
2022/03/28 04:41:53;;;;;;;18.48;11.50;;;;;;;;;;4988633;28;20433;-68
2022/03/28 04:44:19;;;;;;;18.08;11.80;;;;;;;;;;4969714;28;20919;-68
2022/03/28 04:46:45;;;;;;;24.98;11.32;;;;;;;;;;4970072;28;20441;-68
2022/03/28 04:49:14;;;;;;;22.63;11.35;;;;;;;;;;4998360;28;20490;-67
2022/03/28 04:51:40;;;;;;;17.97;10.50;;;;;;;;;;5000859;28;20427;-67
2022/03/28 04:54:06;;;;;;;21.10;11.57;;;;;;;;;;5000723;28;20436;-67
2022/03/28 04:56:34;;;;;;;20.17;11.77;;;;;;;;;;4987029;28;20425;-67
2022/03/28 04:59:02;;;;;;;92.75;17.63;;;;;;;;;;4965467;28;20430;-67
2022/03/28 05:01:28;;;;;;;28.52;13.18;;;;;;;;;;4995157;28;20440;-67
2022/03/28 05:03:54;;;;;;;25.93;13.10;;;;;;;;;;5005969;28;20444;-68
2022/03/28 05:06:20;;;;;;;26.52;13.30;;;5.90;99.90;;;;;;5008510;28;20420;-69
2022/03/28 05:08:46;;;;;;;23.63;12.70;;;;;;;;;;5004076;28;20469;-68
2022/03/28 05:11:15;;;;;;;23.85;12.15;;;;;;;;;;4983408;28;20432;-67
2022/03/28 05:13:40;;;;;;;22.77;12.02;;;6.00;99.90;;;;;;4987612;28;20443;-67
2022/03/28 05:16:06;;;;;;;32.17;11.27;;;6.10;99.90;;;;;;5005191;28;20437;-67
2022/03/28 05:18:32;;;;;;;35.00;11.38;;;;;;;;;;5017110;28;20443;-68
2022/03/28 05:20:58;;;;;;;155.75;17.38;;;;;;;;;;4972663;28;20454;-67
2022/03/28 05:23:24;;;;;;;23.63;11.57;;;;;;;;;;4998296;28;20569;-67
2022/03/28 05:25:50;;;;;;;35.45;13.20;;;;;;;;;;5005745;28;20436;-68
2022/03/28 05:28:16;;;;;;;116.38;15.82;;;;;;;;;;4977921;28;20521;-68
2022/03/28 05:30:42;;;;;;;24.48;11.55;;;;;;;;;;5011018;28;20409;-67
2022/03/28 05:33:09;;;;;;;38.05;12.07;;;;;;;;;;5009089;28;20421;-67
2022/03/28 05:35:35;;;;;;;20.00;11.32;;;;;;;;;;4981892;28;20429;-68
2022/03/28 05:38:01;;;;;;;20.63;11.50;;;;;;;;;;4999264;28;20430;-68
2022/03/28 05:40:27;;;;;;;25.48;11.27;;;;;;;;;;4986321;28;20444;-68
2022/03/28 05:42:54;;;;;;;24.02;11.55;;;;;;;;;;4994203;28;20421;-68
2022/03/28 05:45:20;;;;;;;20.75;10.55;;;;;;;;;;4987659;28;20421;-67
2022/03/28 05:47:46;;;;;;;20.23;10.63;;;;;;;;;;4996147;28;20466;-68
2022/03/28 05:50:12;;;;;;;23.15;11.52;;;;;;;;;;5016835;28;20508;-68
2022/03/28 05:52:38;;;;;;;20.58;10.82;;;;;;;;;;5010238;28;20808;-67
2022/03/28 05:55:05;;;;;;;32.97;12.05;;;;;;;;;;5001010;28;20471;-68
2022/03/28 05:57:31;;;;;;;20.60;11.52;;;;;;;;;;4987152;28;20786;-68
2022/03/28 05:59:57;;;;;;;23.60;10.90;;;;;;;;;;4988466;28;20504;-68
2022/03/28 06:02:23;;;;;;;22.00;10.35;;;;;;;;;;4978146;28;20500;-68
2022/03/28 06:04:49;;;;;;;21.17;11.70;;;;;;;;;;4977579;28;20433;-68
2022/03/28 06:07:15;;;;;;;84.88;15.60;;;;;;;;;;4987411;28;20446;-68
2022/03/28 06:09:41;;;;;;;14.95;8.25;;;;;;;;;;5035031;28;20438;-68
2022/03/28 06:12:08;;;;;;;26.37;8.00;;;;;;;;;;5005692;28;20545;-68
2022/03/28 06:14:34;;;;;;;12.85;6.80;;;;;;;;;;5011144;28;20495;-67
2022/03/28 06:17:00;;;;;;;12.98;6.57;;;;;;;;;;5005535;28;20440;-68
2022/03/28 06:19:26;;;;;;;12.93;5.85;;;;;;;;;;4983252;28;20435;-68
2022/03/28 06:21:52;;;;;;;15.32;6.40;;;;;;;;;;5007690;28;20445;-68
2022/03/28 06:24:18;;;;;;;12.60;5.90;;;;;;;;;;5022079;28;20939;-68
2022/03/28 06:26:44;;;;;;;13.93;6.03;;;;;;;;;;4965469;28;21100;-69
2022/03/28 06:29:10;;;;;;;14.13;6.40;;;;;;;;;;5019138;28;20483;-69
2022/03/28 06:31:37;;;;;;;13.03;6.70;;;;;;;;;;4992623;28;20421;-69
2022/03/28 06:34:03;;;;;;;17.20;7.00;;;;;;;;;;4977656;28;20479;-69
2022/03/28 06:36:32;;;;;;;19.35;7.93;;;;;;;;;;5010426;28;20527;-69
2022/03/28 06:39:00;;;;;;;18.95;6.85;;;;;;;;;;5036140;28;21215;-68
2022/03/28 06:41:26;;;;;;;32.03;10.55;;;5.30;99.90;;;;;;4978055;28;20423;-68
2022/03/28 06:43:52;;;;;;;21.13;9.88;;;;;;;;;;4951434;28;20425;-68
2022/03/28 06:46:20;;;;;;;17.38;7.43;;;;;;;;;;5009957;28;20942;-71
2022/03/28 06:48:47;;;;;;;15.10;7.15;;;;;;;;;;4973357;28;20427;-68
2022/03/28 06:51:13;;;;;;;16.77;7.00;;;;;;;;;;5000637;28;20436;-68
2022/03/28 06:53:39;;;;;;;11.10;5.50;;;;;;;;;;4971834;28;20442;-68
2022/03/28 06:56:05;;;;;;;23.70;7.00;;;;;;;;;;5022861;28;20962;-68
2022/03/28 06:58:31;;;;;;;10.10;5.90;;;;;;;;;;5002778;28;20657;-68
2022/03/28 07:00:57;;;;;;;10.30;5.25;;;;;;;;;;4985523;28;21174;-68
2022/03/28 07:03:23;;;;;;;12.85;6.30;;;;;;;;;;4975761;28;20464;-68
2022/03/28 07:05:49;;;;;;;21.60;7.03;;;;;;;;;;4986898;28;20493;-69
2022/03/28 07:08:16;;;;;;;17.55;7.50;;;;;;;;;;4991158;28;20441;-68
2022/03/28 07:10:42;;;;;;;15.27;7.32;;;;;;;;;;4996757;28;20433;-68
2022/03/28 07:13:09;;;;;;;13.23;7.30;;;;;;;;;;5002000;28;20433;-67
2022/03/28 07:15:35;;;;;;;33.42;9.02;;;;;;;;;;5000473;28;20445;-67
2022/03/28 07:18:07;;;;;;;77.95;11.25;;;;;;;;;;4990167;28;20427;-67
2022/03/28 07:20:33;;;;;;;13.95;7.70;;;6.00;99.90;;;;;;5012162;28;20421;-67
2022/03/28 07:22:59;;;;;;;14.13;8.05;;;;;;;;;;5007975;28;20482;-67
2022/03/28 07:25:26;;;;;;;33.42;10.07;;;;;;;;;;4993956;28;20449;-68
2022/03/28 07:27:52;;;;;;;22.63;10.65;;;;;;;;;;4998416;28;20462;-68
2022/03/28 07:30:19;;;;;;;20.23;9.77;;;;;;;;;;4988647;28;20424;-67
2022/03/28 07:32:46;;;;;;;21.05;10.35;;;;;;;;;;4999537;28;20437;-67
2022/03/28 07:35:14;;;;;;;18.83;9.98;;;;;;;;;;4975070;28;20423;-67
2022/03/28 07:37:41;;;;;;;18.90;10.60;;;;;;;;;;5021157;28;20422;-68
2022/03/28 07:40:08;;;;;;;19.05;10.80;;;;;;;;;;4985494;28;20433;-68
2022/03/28 07:42:34;;;;;;;18.13;10.07;;;;;;;;;;4985756;28;20435;-68
2022/03/28 07:45:01;;;;;;;17.58;10.45;;;;;;;;;;4986190;28;20428;-68
2022/03/28 07:47:28;;;;;;;15.70;9.27;;;;;;;;;;4988038;28;20446;-71
2022/03/28 07:49:54;;;;;;;18.15;10.15;;;;;;;;;;4993721;28;20450;-68
2022/03/28 07:52:21;;;;;;;17.83;10.40;;;;;;;;;;4966418;28;21061;-68
2022/03/28 07:54:48;;;;;;;20.33;11.40;;;;;;;;;;4983387;28;20433;-68
2022/03/28 07:57:14;;;;;;;19.63;11.13;;;;;;;;;;5007425;28;20414;-68
2022/03/28 07:59:44;;;;;;;25.07;13.80;;;;;;;;;;5007246;28;20535;-68
2022/03/28 08:02:10;;;;;;;88.87;17.33;;;;;;;;;;5000394;28;20429;-68
2022/03/28 08:04:36;;;;;;;54.60;15.85;;;6.20;99.90;;;;;;4984367;28;20512;-68
2022/03/28 08:07:05;;;;;;;25.48;13.15;;;;;;;;;;4995822;28;20453;-69
2022/03/28 08:09:31;;;;;;;36.53;13.77;;;;;;;;;;5003319;28;20466;-69
2022/03/28 08:11:57;;;;;;;27.55;13.57;;;;;;;;;;5022679;28;20540;-69
2022/03/28 08:14:23;;;;;;;174.63;22.73;;;;;;;;;;4961387;28;20430;-69
2022/03/28 08:16:50;;;;;;;33.50;13.70;;;;;;;;;;4994786;28;20428;-69
2022/03/28 08:19:16;;;;;;;27.77;13.97;;;;;;;;;;4994290;28;20474;-69
2022/03/28 08:21:42;;;;;;;30.77;14.48;;;;;;;;;;4987560;28;20425;-70
2022/03/28 08:24:08;;;;;;;31.27;15.27;;;;;;;;;;4992860;28;20447;-69
2022/03/28 08:26:34;;;;;;;26.45;14.18;;;;;;;;;;5015973;28;20612;-69
2022/03/28 08:29:00;;;;;;;28.55;15.18;;;;;;;;;;5002292;28;20429;-69
2022/03/28 08:31:28;;;;;;;185.80;24.90;;;;;;;;;;4984070;28;20455;-69
2022/03/28 08:33:54;;;;;;;30.03;13.93;;;;;;;;;;4987330;28;20927;-69
2022/03/28 08:36:20;;;;;;;25.95;15.13;;;;;;;;;;4995691;28;20429;-69
2022/03/28 08:38:46;;;;;;;31.02;16.00;;;;;;;;;;5012167;28;20421;-69
2022/03/28 08:41:14;;;;;;;27.65;14.45;;;;;;;;;;4995702;28;20483;-69
2022/03/28 08:43:41;;;;;;;24.60;14.35;;;;;;;;;;4981715;28;21043;-68
2022/03/28 08:46:09;;;;;;;23.52;14.35;;;;;;;;;;4996599;28;20434;-69
2022/03/28 08:48:37;;;;;;;26.25;15.18;;;;;;;;;;4996231;28;20777;-69
2022/03/28 08:51:03;;;;;;;23.13;14.23;;;;;;;;;;5002538;28;20464;-69
2022/03/28 08:53:29;;;;;;;25.85;15.68;;;;;;;;;;5017749;28;20426;-69
2022/03/28 08:55:56;;;;;;;28.45;16.75;;;;;;;;;;5007548;28;20434;-68
2022/03/28 08:58:22;;;;;;;29.03;17.73;;;;;;;;;;5011826;28;20429;-68
2022/03/28 09:00:48;;;;;;;32.45;19.02;;;;;;;;;;4990222;28;20436;-68
2022/03/28 09:03:14;;;;;;;33.95;19.58;;;;;;;;;;5009116;28;20421;-69
2022/03/28 09:05:41;;;;;;;34.45;20.65;;;;;;;;;;4995875;28;20492;-68
2022/03/28 09:08:09;;;;;;;37.20;21.13;;;;;;;;;;5010614;28;20440;-68
2022/03/28 09:10:35;;;;;;;33.58;20.70;;;;;;;;;;4987711;28;20486;-69
2022/03/28 09:13:09;;;;;;;36.85;22.88;;;;;;;;;;4971244;28;20436;-69
2022/03/28 09:15:44;;;;;;;40.17;24.10;;;;;;;;;;4990301;28;20431;-69
2022/03/28 09:18:20;;;;;;;40.35;25.25;;;7.00;99.90;;;;;;4995941;28;20437;-69
2022/03/28 09:20:50;;;;;;;36.75;23.65;;;;;;;;;;4989473;28;20437;-69
2022/03/28 09:23:26;;;;;;;36.60;23.30;;;;;;;;;;4979273;28;20494;-69
2022/03/28 09:25:52;;;;;;;36.67;23.83;;;;;;;;;;5003225;28;20432;-69
2022/03/28 09:28:37;;;;;;;35.67;23.08;;;;;;;;;;5023012;28;20430;-69
2022/03/28 09:31:15;;;;;;;35.33;23.38;;;;;;;;;;5000279;28;20510;-69
2022/03/28 09:34:14;;;;;;;36.85;23.13;;;;;;;;;;5020665;28;20421;-69
2022/03/28 09:36:48;;;;;;;39.42;24.98;;;;;;;;;;4971215;28;20436;-69
2022/03/28 09:39:19;;;;;;;39.47;24.52;;;;;;;;;;4984205;28;20444;-69
2022/03/28 09:41:46;;;;;;;36.60;24.27;;;;;;;;;;5025879;28;20440;-70
2022/03/28 09:44:13;;;;;;;38.60;24.75;;;;;;;;;;4996732;28;20458;-69
2022/03/28 09:46:39;;;;;;;38.83;26.27;;;;;;;;;;4984340;28;20445;-70
2022/03/28 09:49:06;;;;;;;37.25;24.88;;;;;;;;;;5015242;28;20433;-69
2022/03/28 09:51:32;;;;;;;40.25;25.73;;;;;;;;;;4997407;28;21055;-69
2022/03/28 09:53:59;;;;;;;37.77;25.27;;;;;;;;;;4994371;28;20428;-69
2022/03/28 09:56:25;;;;;;;36.70;25.00;;;;;;;;;;5003413;28;20455;-69
2022/03/28 09:59:04;;;;;;;36.92;25.15;;;;;;;;;;4988774;28;20425;-70
2022/03/28 10:01:35;;;;;;;36.85;23.85;;;7.40;99.90;;;;;;4990433;28;20436;-68
2022/03/28 10:04:06;;;;;;;36.47;23.33;;;;;;;;;;4985958;28;20465;-68
2022/03/28 10:06:33;;;;;;;34.55;23.00;;;;;;;;;;5031436;28;20498;-68
2022/03/28 10:08:59;;;;;;;33.83;23.25;;;;;;;;;;5003721;28;20784;-69
2022/03/28 10:11:26;;;;;;;32.53;22.35;;;;;;;;;;5011065;28;20483;-69
2022/03/28 10:13:53;;;;;;;31.05;21.02;;;;;;;;;;4993088;28;20432;-69
2022/03/28 10:16:19;;;;;;;28.73;19.92;;;;;;;;;;5020634;28;20430;-69
2022/03/28 10:18:46;;;;;;;29.03;19.43;;;;;;;;;;5001599;28;20454;-69
2022/03/28 10:21:31;;;;;;;27.67;20.33;;;8.10;99.90;;;;;;4995744;28;20434;-69
2022/03/28 10:24:01;;;;;;;26.02;18.42;;;;;;;;;;4989030;28;20495;-69
2022/03/28 10:26:47;;;;;;;25.58;18.52;;;;;;;;;;5012245;28;20519;-68
2022/03/28 10:29:17;;;;;;;24.90;17.63;;;;;;;;;;4995968;28;20447;-69
2022/03/28 10:31:54;;;;;;;24.55;16.73;;;8.40;99.90;;;;;;4981337;28;20432;-69
2022/03/28 10:34:39;;;;;;;20.65;16.13;;;;;;;;;;4983974;28;20594;-69
2022/03/28 10:37:27;;;;;;;20.60;15.13;;;8.80;99.90;;;;;;4982304;28;20526;-69
2022/03/28 10:40:12;;;;;;;21.08;14.73;;;;;;;;;;5013537;28;20440;-69
2022/03/28 10:42:39;;;;;;;19.88;15.07;;;;;;;;;;5004670;28;20443;-69
2022/03/28 10:45:07;;;;;;;19.73;14.70;;;;;;;;;;4989721;28;20432;-69
2022/03/28 10:47:41;;;;;;;18.35;14.23;;;;;;;;;;4991645;28;20432;-69
2022/03/28 10:50:09;;;;;;;18.75;14.50;;;;;;;;;;4993906;28;20493;-69
2022/03/28 10:52:35;;;;;;;18.73;14.38;;;;;;;;;;5005991;28;20792;-69
2022/03/28 10:55:11;;;;;;;18.38;14.20;;;;;;;;;;5002934;28;20426;-69
2022/03/28 10:57:38;;;;;;;16.58;13.02;;;;;;;;;;5004662;28;20437;-69
2022/03/28 11:00:06;;;;;;;21.77;14.45;;;;;;;;;;4997978;28;20814;-69
2022/03/28 11:02:33;;;;;;;19.17;14.02;;;;;;;;;;4997624;28;20437;-70
2022/03/28 11:05:14;;;;;;;18.37;13.17;;;;;;;;;;5001124;28;20505;-70
2022/03/28 11:07:40;;;;;;;17.00;11.70;;;;;;;;;;4998973;28;20431;-71
2022/03/28 11:10:10;;;;;;;14.93;11.45;;;;;;;;;;4983160;28;20440;-70
2022/03/28 11:12:40;;;;;;;15.50;12.02;;;;;;;;;;4983291;28;20837;-70
2022/03/28 11:15:15;;;;;;;15.30;12.30;;;;;;;;;;4989584;28;20436;-71
2022/03/28 11:18:00;;;;;;;13.67;11.40;;;;;;;;;;4988140;28;20527;-69
2022/03/28 11:20:28;;;;;;;14.70;11.65;;;;;;;;;;5019662;28;20517;-69
2022/03/28 11:22:55;;;;;;;15.05;11.93;;;;;;;;;;4988935;28;20429;-69
2022/03/28 11:25:29;;;;;;;16.80;11.38;;;;;;;;;;5019036;28;20428;-68
2022/03/28 11:28:08;;;;;;;15.48;11.75;;;;;;;;;;4980941;28;20465;-69
2022/03/28 11:30:55;;;;;;;15.07;11.82;;;;;;;;;;5003688;28;20429;-69
2022/03/28 11:33:38;;;;;;;13.03;11.07;;;;;;;;;;5024537;28;20448;-69
2022/03/28 11:36:32;;;;;;;15.00;11.38;;;;;;;;;;4993036;28;20436;-69
2022/03/28 11:39:03;;;;;;;17.45;11.57;;;;;;;;;;5002048;28;20471;-69
2022/03/28 11:41:30;;;;;;;14.48;10.82;;;;;;;;;;4980678;28;20530;-69
2022/03/28 11:43:57;;;;;;;14.18;11.18;;;;;;;;;;4981945;28;20420;-69
2022/03/28 11:46:24;;;;;;;14.02;11.25;;;;;;;;;;5033653;28;20528;-69
2022/03/28 11:48:54;;;;;;;15.63;11.88;;;;;;;;;;4980397;28;20605;-69
2022/03/28 11:51:20;;;;;;;15.80;12.90;;;;;;;;;;4986457;28;20535;-69
2022/03/28 11:53:46;;;;;;;18.17;13.48;;;;;;;;;;4993375;28;20478;-69
2022/03/28 11:56:22;;;;;;;14.45;11.40;;;10.90;99.90;;;;;;5032483;28;20944;-70
2022/03/28 11:58:48;;;;;;;17.88;13.32;;;;;;;;;;4992684;28;21155;-69
2022/03/28 12:01:16;;;;;;;16.65;12.65;;;;;;;;;;4957961;28;20902;-69
2022/03/28 12:03:49;;;;;;;15.48;12.23;;;;;;;;;;5007667;28;20439;-69
2022/03/28 12:06:26;;;;;;;16.83;12.43;;;;;;;;;;4951338;28;20793;-70
2022/03/28 12:08:52;;;;;;;16.20;11.60;;;;;;;;;;4971775;28;20519;-70
2022/03/28 12:11:19;;;;;;;15.88;12.45;;;;;;;;;;5002057;28;20428;-69
2022/03/28 12:13:45;;;;;;;16.67;12.32;;;;;;;;;;4991378;28;21245;-69
2022/03/28 12:16:11;;;;;;;15.02;11.85;;;;;;;;;;5037188;28;20437;-68
2022/03/28 12:18:37;;;;;;;15.83;12.50;;;;;;;;;;4998089;28;21119;-69
2022/03/28 12:21:03;;;;;;;14.15;12.40;;;;;;;;;;5014803;28;20449;-69
2022/03/28 12:23:30;;;;;;;16.08;12.60;;;;;;;;;;4989200;28;20471;-70
2022/03/28 12:26:00;;;;;;;19.70;14.07;;;;;;;;;;4974516;28;20416;-70
2022/03/28 12:28:28;;;;;;;17.37;13.73;;;;;;;;;;4987977;28;20451;-70
2022/03/28 12:30:56;;;;;;;16.13;13.23;;;;;;;;;;5001813;28;20527;-69
2022/03/28 12:33:26;;;;;;;19.40;13.90;;;;;;;;;;4984386;28;20501;-70
2022/03/28 12:35:54;;;;;;;17.73;14.00;;;;;;;;;;4983923;28;20453;-69
2022/03/28 12:38:21;;;;;;;19.17;14.30;;;;;;;;;;4997266;28;20433;-69
2022/03/28 12:40:55;;;;;;;19.23;14.48;;;;;;;;;;5021806;28;20433;-70
2022/03/28 12:43:25;;;;;;;19.33;15.20;;;;;;;;;;4970356;28;20440;-69
2022/03/28 12:45:55;;;;;;;21.83;15.38;;;;;;;;;;5017160;28;20537;-68
2022/03/28 12:48:21;;;;;;;19.83;15.27;;;;;;;;;;4985621;28;20485;-69
2022/03/28 12:50:52;;;;;;;17.38;14.75;;;;;;;;;;4995597;28;20434;-70
2022/03/28 12:53:18;;;;;;;18.98;15.15;;;;;;;;;;4964493;28;20479;-69
2022/03/28 12:55:45;;;;;;;20.75;15.63;;;;;;;;;;4977928;28;20439;-69
2022/03/28 12:58:12;;;;;;;18.80;15.00;;;13.20;99.90;;;;;;5000224;28;20470;-69
2022/03/28 13:00:40;;;;;;;21.17;14.32;;;;;;;;;;4974648;28;20434;-70
2022/03/28 13:03:06;;;;;;;18.58;15.43;;;13.90;99.90;;;;;;5009850;28;20425;-69
2022/03/28 13:05:34;;;;;;;18.00;15.10;;;;;;;;;;4982008;28;20523;-69
2022/03/28 13:08:04;;;;;;;19.73;16.42;;;;;;;;;;4983908;28;20495;-69
2022/03/28 13:10:33;;;;;;;20.00;16.37;;;;;;;;;;4982967;28;20444;-69
2022/03/28 13:13:00;;;;;;;21.17;16.00;;;;;;;;;;4971726;28;20455;-69
2022/03/28 13:15:30;;;;;;;19.70;16.58;;;;;;;;;;4961384;28;20443;-70
2022/03/28 13:18:05;;;;;;;20.63;16.83;;;;;;;;;;4962183;28;20447;-70
2022/03/28 13:20:31;;;;;;;19.55;16.15;;;14.70;99.90;;;;;;4997164;28;20824;-70
2022/03/28 13:22:59;;;;;;;21.53;15.57;;;;;;;;;;4988627;28;20525;-69
2022/03/28 13:25:27;;;;;;;21.80;16.38;;;;;;;;;;4997733;28;20429;-70
2022/03/28 13:28:08;;;;;;;18.55;16.30;;;;;;;;;;4990144;28;20429;-70
2022/03/28 13:30:35;;;;;;;18.98;15.77;;;;;;;;;;5035833;28;20986;-70
2022/03/28 13:33:02;;;;;;;17.83;14.98;;;;;;;;;;5007923;28;20484;-71
2022/03/28 13:35:28;;;;;;;17.30;15.02;;;;;;;;;;5012182;28;20428;-70
2022/03/28 13:37:59;;;;;;;17.50;13.73;;;;;;;;;;4974744;28;20945;-70
2022/03/28 13:40:25;;;;;;;15.98;13.75;;;;;;;;;;4971085;28;20436;-70
2022/03/28 13:42:52;;;;;;;19.25;13.23;;;;;;;;;;4990187;28;20441;-70
2022/03/28 13:45:18;;;;;;;16.98;13.60;;;;;;;;;;5024622;28;20435;-70
2022/03/28 13:47:45;;;;;;;16.90;13.68;;;;;;;;;;4976558;28;20467;-70
2022/03/28 13:50:11;;;;;;;15.15;13.15;;;;;;;;;;4965284;28;20436;-69
2022/03/28 13:52:38;;;;;;;15.80;13.68;;;;;;;;;;5008988;28;20432;-69
2022/03/28 13:55:04;;;;;;;16.25;13.75;;;;;;;;;;4999371;28;20426;-69
2022/03/28 13:57:30;;;;;;;17.88;14.20;;;;;;;;;;5025800;28;20482;-69
2022/03/28 13:59:56;;;;;;;18.02;14.10;;;;;;;;;;4989221;28;20467;-69
2022/03/28 14:02:22;;;;;;;16.92;14.70;;;14.20;99.90;;;;;;4977998;28;21646;-69
2022/03/28 14:04:48;;;;;;;19.27;14.98;;;;;;;;;;4985747;28;21102;-69
2022/03/28 14:07:14;;;;;;;19.02;14.98;;;;;;;;;;4983921;28;20445;-68
2022/03/28 14:09:41;;;;;;;23.73;16.10;;;;;;;;;;4979902;28;20477;-69
2022/03/28 14:12:07;;;;;;;19.27;14.57;;;;;;;;;;5017704;28;20436;-70
2022/03/28 14:14:35;;;;;;;20.90;14.80;;;;;;;;;;4995586;28;20436;-70